sensor_id;sensor_type;location;lat;lon;timestamp;pressure;altitude;pressure_sealevel;temperature;humidity
52855;BME280;38719;51.418;7.286;2023-04-26T00:01:24;100068.19;;;4.18;68.96
52855;BME280;38719;51.418;7.286;2023-04-26T00:03:52;100066.69;;;4.54;67.73
52855;BME280;38719;51.418;7.286;2023-04-26T00:06:22;100063.19;;;4.53;67.03
52855;BME280;38719;51.418;7.286;2023-04-26T00:08:49;100071.22;;;4.45;69.24
52855;BME280;38719;51.418;7.286;2023-04-26T00:11:17;100067.59;;;4.52;67.48
52855;BME280;38719;51.418;7.286;2023-04-26T00:13:45;100072.94;;;4.49;68.02
52855;BME280;38719;51.418;7.286;2023-04-26T00:16:13;100067.47;;;4.59;67.90
52855;BME280;38719;51.418;7.286;2023-04-26T00:18:42;100066.06;;;4.86;66.13
52855;BME280;38719;51.418;7.286;2023-04-26T00:21:09;100068.09;;;4.73;67.38
52855;BME280;38719;51.418;7.286;2023-04-26T00:23:37;100061.28;;;4.61;67.51
52855;BME280;38719;51.418;7.286;2023-04-26T00:26:04;100065.28;;;4.81;67.68
52855;BME280;38719;51.418;7.286;2023-04-26T00:28:32;100058.19;;;4.84;66.49
52855;BME280;38719;51.418;7.286;2023-04-26T00:31:00;100058.22;;;4.36;68.10
52855;BME280;38719;51.418;7.286;2023-04-26T00:33:29;100058.66;;;4.60;67.46
52855;BME280;38719;51.418;7.286;2023-04-26T00:35:57;100052.22;;;4.75;66.81
52855;BME280;38719;51.418;7.286;2023-04-26T00:38:24;100057.00;;;4.56;68.17
52855;BME280;38719;51.418;7.286;2023-04-26T00:40:51;100054.09;;;4.70;66.58
52855;BME280;38719;51.418;7.286;2023-04-26T00:43:19;100053.09;;;4.27;68.84
52855;BME280;38719;51.418;7.286;2023-04-26T00:45:46;100048.16;;;3.52;70.22
52855;BME280;38719;51.418;7.286;2023-04-26T00:48:14;100048.28;;;3.44;70.33
52855;BME280;38719;51.418;7.286;2023-04-26T00:50:43;100053.81;;;3.22;71.89
52855;BME280;38719;51.418;7.286;2023-04-26T00:53:13;100053.00;;;3.17;71.28
52855;BME280;38719;51.418;7.286;2023-04-26T00:55:41;100056.03;;;2.83;73.25
52855;BME280;38719;51.418;7.286;2023-04-26T00:58:10;100043.66;;;2.95;73.78
52855;BME280;38719;51.418;7.286;2023-04-26T01:00:38;100045.28;;;3.05;73.17
52855;BME280;38719;51.418;7.286;2023-04-26T01:03:05;100047.25;;;2.87;73.79
52855;BME280;38719;51.418;7.286;2023-04-26T01:05:33;100048.44;;;3.32;71.43
52855;BME280;38719;51.418;7.286;2023-04-26T01:08:03;100041.84;;;3.00;73.03
52855;BME280;38719;51.418;7.286;2023-04-26T01:10:31;100041.81;;;3.01;74.02
52855;BME280;38719;51.418;7.286;2023-04-26T01:12:59;100047.47;;;3.37;71.74
52855;BME280;38719;51.418;7.286;2023-04-26T01:15:28;100047.59;;;3.27;72.15
52855;BME280;38719;51.418;7.286;2023-04-26T01:17:58;100046.94;;;3.75;70.18
52855;BME280;38719;51.418;7.286;2023-04-26T01:20:27;100045.47;;;2.91;72.93
52855;BME280;38719;51.418;7.286;2023-04-26T01:22:56;100049.69;;;3.03;72.06
52855;BME280;38719;51.418;7.286;2023-04-26T01:25:23;100045.19;;;3.11;72.15
52855;BME280;38719;51.418;7.286;2023-04-26T01:27:51;100048.88;;;2.98;73.12
52855;BME280;38719;51.418;7.286;2023-04-26T01:30:19;100061.75;;;3.18;72.80
52855;BME280;38719;51.418;7.286;2023-04-26T01:32:46;100057.16;;;3.34;71.63
52855;BME280;38719;51.418;7.286;2023-04-26T01:35:13;100053.97;;;3.10;72.12
52855;BME280;38719;51.418;7.286;2023-04-26T01:37:41;100055.56;;;3.23;72.75
52855;BME280;38719;51.418;7.286;2023-04-26T01:40:11;100061.09;;;3.02;72.94
52855;BME280;38719;51.418;7.286;2023-04-26T01:42:38;100065.81;;;2.75;74.37
52855;BME280;38719;51.418;7.286;2023-04-26T01:45:06;100056.38;;;3.29;72.47
52855;BME280;38719;51.418;7.286;2023-04-26T01:47:34;100047.41;;;3.42;72.60
52855;BME280;38719;51.418;7.286;2023-04-26T01:50:01;100059.22;;;3.12;72.65
52855;BME280;38719;51.418;7.286;2023-04-26T01:52:29;100054.34;;;2.82;73.76
52855;BME280;38719;51.418;7.286;2023-04-26T01:54:56;100054.44;;;2.71;74.01
52855;BME280;38719;51.418;7.286;2023-04-26T01:57:25;100049.44;;;2.48;74.61
52855;BME280;38719;51.418;7.286;2023-04-26T01:59:52;100057.22;;;2.59;75.54
52855;BME280;38719;51.418;7.286;2023-04-26T02:02:21;100050.59;;;3.00;73.48
52855;BME280;38719;51.418;7.286;2023-04-26T02:04:49;100056.75;;;2.98;73.25
52855;BME280;38719;51.418;7.286;2023-04-26T02:07:17;100064.91;;;2.74;74.59
52855;BME280;38719;51.418;7.286;2023-04-26T02:09:44;100053.34;;;2.89;73.81
52855;BME280;38719;51.418;7.286;2023-04-26T02:12:12;100057.41;;;3.15;73.63
52855;BME280;38719;51.418;7.286;2023-04-26T02:14:41;100057.53;;;3.08;72.85
52855;BME280;38719;51.418;7.286;2023-04-26T02:17:08;100053.91;;;3.16;73.54
52855;BME280;38719;51.418;7.286;2023-04-26T02:19:36;100058.13;;;3.30;72.88
52855;BME280;38719;51.418;7.286;2023-04-26T02:22:04;100059.31;;;3.04;73.29
52855;BME280;38719;51.418;7.286;2023-04-26T02:24:31;100057.09;;;3.40;73.03
52855;BME280;38719;51.418;7.286;2023-04-26T02:26:59;100053.00;;;3.81;70.11
52855;BME280;38719;51.418;7.286;2023-04-26T02:29:29;100051.97;;;3.88;70.70
52855;BME280;38719;51.418;7.286;2023-04-26T02:32:11;100046.44;;;3.49;71.11
52855;BME280;38719;51.418;7.286;2023-04-26T02:34:39;100059.94;;;3.85;70.43
52855;BME280;38719;51.418;7.286;2023-04-26T02:37:07;100058.25;;;3.80;69.81
52855;BME280;38719;51.418;7.286;2023-04-26T02:39:35;100051.66;;;3.54;70.80
52855;BME280;38719;51.418;7.286;2023-04-26T02:42:02;100058.13;;;3.27;72.25
52855;BME280;38719;51.418;7.286;2023-04-26T02:44:30;100046.97;;;3.09;72.33
52855;BME280;38719;51.418;7.286;2023-04-26T02:46:57;100050.81;;;3.50;71.73
52855;BME280;38719;51.418;7.286;2023-04-26T02:49:26;100049.19;;;3.40;71.41
52855;BME280;38719;51.418;7.286;2023-04-26T02:51:54;100051.53;;;3.62;71.52
52855;BME280;38719;51.418;7.286;2023-04-26T02:54:21;100040.91;;;3.68;71.32
52855;BME280;38719;51.418;7.286;2023-04-26T02:56:49;100040.75;;;3.77;70.33
52855;BME280;38719;51.418;7.286;2023-04-26T02:59:16;100055.03;;;4.17;68.93
52855;BME280;38719;51.418;7.286;2023-04-26T03:01:44;100047.94;;;4.20;68.33
52855;BME280;38719;51.418;7.286;2023-04-26T03:04:11;100044.66;;;4.08;69.28
52855;BME280;38719;51.418;7.286;2023-04-26T03:06:40;100046.31;;;4.13;69.01
52855;BME280;38719;51.418;7.286;2023-04-26T03:09:07;100050.75;;;4.11;69.31
52855;BME280;38719;51.418;7.286;2023-04-26T03:11:35;100047.13;;;4.18;68.34
52855;BME280;38719;51.418;7.286;2023-04-26T03:14:02;100048.53;;;3.83;69.92
52855;BME280;38719;51.418;7.286;2023-04-26T03:16:30;100042.84;;;3.53;70.67
52855;BME280;38719;51.418;7.286;2023-04-26T03:18:57;100041.72;;;3.70;71.08
52855;BME280;38719;51.418;7.286;2023-04-26T03:21:25;100047.53;;;3.94;70.11
52855;BME280;38719;51.418;7.286;2023-04-26T03:23:54;100041.50;;;3.85;69.37
52855;BME280;38719;51.418;7.286;2023-04-26T03:26:22;100035.66;;;3.65;71.16
52855;BME280;38719;51.418;7.286;2023-04-26T03:28:49;100039.94;;;3.72;70.40
52855;BME280;38719;51.418;7.286;2023-04-26T03:31:17;100036.22;;;3.85;70.27
52855;BME280;38719;51.418;7.286;2023-04-26T03:33:47;100038.56;;;3.46;71.70
52855;BME280;38719;51.418;7.286;2023-04-26T03:36:14;100044.16;;;3.82;70.05
52855;BME280;38719;51.418;7.286;2023-04-26T03:38:42;100039.94;;;3.72;70.15
52855;BME280;38719;51.418;7.286;2023-04-26T03:41:11;100038.47;;;3.52;71.66
52855;BME280;38719;51.418;7.286;2023-04-26T03:43:38;100029.78;;;3.47;71.62
52855;BME280;38719;51.418;7.286;2023-04-26T03:46:06;100031.03;;;3.23;71.85
52855;BME280;38719;51.418;7.286;2023-04-26T03:48:33;100032.16;;;3.03;72.18
52855;BME280;38719;51.418;7.286;2023-04-26T03:51:01;100031.06;;;3.18;72.11
52855;BME280;38719;51.418;7.286;2023-04-26T03:53:29;100030.66;;;2.81;73.39
52855;BME280;38719;51.418;7.286;2023-04-26T03:55:56;100027.16;;;2.80;73.56
52855;BME280;38719;51.418;7.286;2023-04-26T03:58:25;100034.03;;;2.94;73.14
52855;BME280;38719;51.418;7.286;2023-04-26T04:00:55;100029.81;;;2.79;73.57
52855;BME280;38719;51.418;7.286;2023-04-26T04:03:22;100031.59;;;2.77;74.35
52855;BME280;38719;51.418;7.286;2023-04-26T04:05:50;100034.06;;;2.92;74.15
52855;BME280;38719;51.418;7.286;2023-04-26T04:08:18;100029.56;;;2.99;73.31
52855;BME280;38719;51.418;7.286;2023-04-26T04:10:45;100027.66;;;3.10;73.20
52855;BME280;38719;51.418;7.286;2023-04-26T04:13:13;100032.06;;;3.10;73.60
52855;BME280;38719;51.418;7.286;2023-04-26T04:15:42;100033.75;;;3.14;73.18
52855;BME280;38719;51.418;7.286;2023-04-26T04:18:09;100023.84;;;3.33;72.94
52855;BME280;38719;51.418;7.286;2023-04-26T04:20:37;100030.31;;;3.09;72.10
52855;BME280;38719;51.418;7.286;2023-04-26T04:23:04;100027.25;;;2.72;73.99
52855;BME280;38719;51.418;7.286;2023-04-26T04:25:33;100040.00;;;3.05;73.78
52855;BME280;38719;51.418;7.286;2023-04-26T04:28:00;100040.63;;;3.24;73.29
52855;BME280;38719;51.418;7.286;2023-04-26T04:30:28;100034.56;;;3.81;71.42
52855;BME280;38719;51.418;7.286;2023-04-26T04:32:57;100034.97;;;3.53;71.70
52855;BME280;38719;51.418;7.286;2023-04-26T04:35:25;100036.03;;;3.42;72.39
52855;BME280;38719;51.418;7.286;2023-04-26T04:37:54;100039.28;;;3.58;71.94
52855;BME280;38719;51.418;7.286;2023-04-26T04:40:23;100034.63;;;3.77;71.79
52855;BME280;38719;51.418;7.286;2023-04-26T04:42:51;100040.63;;;3.83;71.51
52855;BME280;38719;51.418;7.286;2023-04-26T04:45:18;100050.03;;;4.01;70.13
52855;BME280;38719;51.418;7.286;2023-04-26T04:47:46;100049.09;;;4.04;70.57
52855;BME280;38719;51.418;7.286;2023-04-26T04:50:15;100052.38;;;4.18;69.51
52855;BME280;38719;51.418;7.286;2023-04-26T04:52:43;100050.47;;;4.28;69.45
52855;BME280;38719;51.418;7.286;2023-04-26T04:55:10;100053.13;;;4.25;69.93
52855;BME280;38719;51.418;7.286;2023-04-26T04:57:38;100051.50;;;4.66;68.59
52855;BME280;38719;51.418;7.286;2023-04-26T05:00:09;100050.78;;;4.58;68.69
52855;BME280;38719;51.418;7.286;2023-04-26T05:02:37;100048.22;;;4.54;68.99
52855;BME280;38719;51.418;7.286;2023-04-26T05:05:06;100057.09;;;4.49;68.98
52855;BME280;38719;51.418;7.286;2023-04-26T05:07:35;100058.56;;;4.66;68.78
52855;BME280;38719;51.418;7.286;2023-04-26T05:10:03;100061.97;;;4.71;68.37
52855;BME280;38719;51.418;7.286;2023-04-26T05:12:30;100062.00;;;5.13;66.99
52855;BME280;38719;51.418;7.286;2023-04-26T05:14:58;100059.09;;;5.26;66.30
52855;BME280;38719;51.418;7.286;2023-04-26T05:17:26;100058.25;;;5.25;66.40
52855;BME280;38719;51.418;7.286;2023-04-26T05:19:53;100066.75;;;5.38;65.48
52855;BME280;38719;51.418;7.286;2023-04-26T05:22:21;100066.28;;;5.60;65.46
52855;BME280;38719;51.418;7.286;2023-04-26T05:24:49;100071.63;;;5.57;65.75
52855;BME280;38719;51.418;7.286;2023-04-26T05:27:17;100071.44;;;5.66;65.13
52855;BME280;38719;51.418;7.286;2023-04-26T05:29:45;100078.38;;;5.70;64.41
52855;BME280;38719;51.418;7.286;2023-04-26T05:32:12;100078.09;;;5.84;64.02
52855;BME280;38719;51.418;7.286;2023-04-26T05:34:40;100078.38;;;6.09;63.56
52855;BME280;38719;51.418;7.286;2023-04-26T05:37:07;100079.19;;;6.13;63.11
52855;BME280;38719;51.418;7.286;2023-04-26T05:39:35;100077.38;;;5.76;64.39
52855;BME280;38719;51.418;7.286;2023-04-26T05:42:04;100079.53;;;5.99;63.59
52855;BME280;38719;51.418;7.286;2023-04-26T05:44:32;100084.00;;;5.94;64.25
52855;BME280;38719;51.418;7.286;2023-04-26T05:46:59;100091.88;;;5.97;63.96
52855;BME280;38719;51.418;7.286;2023-04-26T05:49:27;100091.41;;;6.17;63.69
52855;BME280;38719;51.418;7.286;2023-04-26T05:51:54;100090.00;;;6.38;62.79
52855;BME280;38719;51.418;7.286;2023-04-26T05:54:21;100090.41;;;6.23;63.42
52855;BME280;38719;51.418;7.286;2023-04-26T05:56:49;100090.00;;;6.38;63.44
52855;BME280;38719;51.418;7.286;2023-04-26T05:59:18;100094.44;;;6.38;62.46
52855;BME280;38719;51.418;7.286;2023-04-26T06:01:46;100093.16;;;6.53;62.85
52855;BME280;38719;51.418;7.286;2023-04-26T06:04:14;100096.22;;;6.70;62.65
52855;BME280;38719;51.418;7.286;2023-04-26T06:06:42;100099.16;;;6.59;62.36
52855;BME280;38719;51.418;7.286;2023-04-26T06:09:09;100099.59;;;6.75;62.49
52855;BME280;38719;51.418;7.286;2023-04-26T06:11:37;100105.91;;;6.71;63.00
52855;BME280;38719;51.418;7.286;2023-04-26T06:14:04;100103.97;;;6.43;63.71
52855;BME280;38719;51.418;7.286;2023-04-26T06:16:41;100107.38;;;6.82;62.61
52855;BME280;38719;51.418;7.286;2023-04-26T06:19:09;100101.19;;;6.83;62.77
52855;BME280;38719;51.418;7.286;2023-04-26T06:21:36;100106.66;;;6.76;61.94
52855;BME280;38719;51.418;7.286;2023-04-26T06:24:05;100101.28;;;6.80;62.43
52855;BME280;38719;51.418;7.286;2023-04-26T06:26:32;100107.09;;;6.92;61.60
52855;BME280;38719;51.418;7.286;2023-04-26T06:29:00;100112.09;;;6.70;62.55
52855;BME280;38719;51.418;7.286;2023-04-26T06:31:27;100113.47;;;6.85;62.61
52855;BME280;38719;51.418;7.286;2023-04-26T06:33:56;100115.59;;;7.05;62.27
52855;BME280;38719;51.418;7.286;2023-04-26T06:36:24;100114.75;;;7.35;60.68
52855;BME280;38719;51.418;7.286;2023-04-26T06:38:53;100124.63;;;6.97;62.66
52855;BME280;38719;51.418;7.286;2023-04-26T06:41:20;100124.16;;;7.14;61.69
52855;BME280;38719;51.418;7.286;2023-04-26T06:43:48;100120.44;;;7.21;62.62
52855;BME280;38719;51.418;7.286;2023-04-26T06:46:16;100126.13;;;7.07;62.48
52855;BME280;38719;51.418;7.286;2023-04-26T06:48:45;100123.47;;;7.38;62.07
52855;BME280;38719;51.418;7.286;2023-04-26T06:51:14;100130.88;;;6.61;62.77
52855;BME280;38719;51.418;7.286;2023-04-26T06:53:42;100133.34;;;7.00;63.46
52855;BME280;38719;51.418;7.286;2023-04-26T06:56:09;100127.41;;;6.59;64.81
52855;BME280;38719;51.418;7.286;2023-04-26T06:58:36;100124.50;;;7.01;63.37
52855;BME280;38719;51.418;7.286;2023-04-26T07:01:04;100126.25;;;7.34;62.15
52855;BME280;38719;51.418;7.286;2023-04-26T07:03:33;100124.59;;;7.30;62.90
52855;BME280;38719;51.418;7.286;2023-04-26T07:06:01;100110.41;;;7.32;60.85
52855;BME280;38719;51.418;7.286;2023-04-26T07:08:31;100119.78;;;7.44;62.20
52855;BME280;38719;51.418;7.286;2023-04-26T07:10:58;100112.41;;;7.84;61.42
52855;BME280;38719;51.418;7.286;2023-04-26T07:13:26;100120.22;;;7.58;60.48
52855;BME280;38719;51.418;7.286;2023-04-26T07:15:53;100115.03;;;7.25;62.03
52855;BME280;38719;51.418;7.286;2023-04-26T07:18:21;100107.94;;;7.56;62.01
52855;BME280;38719;51.418;7.286;2023-04-26T07:20:48;100112.47;;;7.82;60.88
52855;BME280;38719;51.418;7.286;2023-04-26T07:23:16;100113.94;;;8.19;59.17
52855;BME280;38719;51.418;7.286;2023-04-26T07:25:45;100111.19;;;7.94;60.10
52855;BME280;38719;51.418;7.286;2023-04-26T07:28:12;100116.22;;;8.03;58.74
52855;BME280;38719;51.418;7.286;2023-04-26T07:30:40;100116.47;;;7.96;59.43
52855;BME280;38719;51.418;7.286;2023-04-26T07:33:07;100118.16;;;8.25;59.09
52855;BME280;38719;51.418;7.286;2023-04-26T07:35:35;100117.16;;;8.29;57.89
52855;BME280;38719;51.418;7.286;2023-04-26T07:38:03;100117.38;;;8.21;57.31
52855;BME280;38719;51.418;7.286;2023-04-26T07:40:30;100121.31;;;8.36;55.55
52855;BME280;38719;51.418;7.286;2023-04-26T07:42:59;100113.16;;;8.69;55.87
52855;BME280;38719;51.418;7.286;2023-04-26T07:45:27;100110.69;;;8.90;56.21
52855;BME280;38719;51.418;7.286;2023-04-26T07:47:54;100111.00;;;9.06;55.10
52855;BME280;38719;51.418;7.286;2023-04-26T07:50:23;100115.97;;;9.15;55.08
52855;BME280;38719;51.418;7.286;2023-04-26T07:52:50;100117.19;;;9.07;55.54
52855;BME280;38719;51.418;7.286;2023-04-26T07:55:18;100122.38;;;8.84;52.91
52855;BME280;38719;51.418;7.286;2023-04-26T07:57:46;100112.44;;;8.91;51.87
52855;BME280;38719;51.418;7.286;2023-04-26T08:00:15;100116.94;;;9.13;53.66
52855;BME280;38719;51.418;7.286;2023-04-26T08:02:44;100118.91;;;8.57;53.85
52855;BME280;38719;51.418;7.286;2023-04-26T08:05:12;100119.50;;;8.65;55.28
52855;BME280;38719;51.418;7.286;2023-04-26T08:07:40;100109.16;;;8.58;54.50
52855;BME280;38719;51.418;7.286;2023-04-26T08:10:09;100117.84;;;8.88;52.36
52855;BME280;38719;51.418;7.286;2023-04-26T08:12:37;100111.72;;;8.32;53.08
52855;BME280;38719;51.418;7.286;2023-04-26T08:15:05;100114.09;;;8.94;51.98
52855;BME280;38719;51.418;7.286;2023-04-26T08:17:34;100111.25;;;9.47;49.76
52855;BME280;38719;51.418;7.286;2023-04-26T08:20:03;100107.03;;;9.65;49.83
52855;BME280;38719;51.418;7.286;2023-04-26T08:22:31;100104.25;;;9.91;50.03
52855;BME280;38719;51.418;7.286;2023-04-26T08:24:58;100100.59;;;10.15;49.65
52855;BME280;38719;51.418;7.286;2023-04-26T08:27:26;100103.75;;;10.25;48.95
52855;BME280;38719;51.418;7.286;2023-04-26T08:29:54;100099.81;;;9.91;49.27
52855;BME280;38719;51.418;7.286;2023-04-26T08:32:22;100102.03;;;10.02;49.59
52855;BME280;38719;51.418;7.286;2023-04-26T08:34:51;100102.25;;;9.97;49.54
52855;BME280;38719;51.418;7.286;2023-04-26T08:37:18;100110.56;;;9.88;49.26
52855;BME280;38719;51.418;7.286;2023-04-26T08:39:46;100111.06;;;9.76;50.32
52855;BME280;38719;51.418;7.286;2023-04-26T08:42:15;100108.72;;;10.12;48.48
52855;BME280;38719;51.418;7.286;2023-04-26T08:44:44;100112.44;;;9.62;48.60
52855;BME280;38719;51.418;7.286;2023-04-26T08:47:15;100102.41;;;9.93;49.27
52855;BME280;38719;51.418;7.286;2023-04-26T08:49:44;100106.69;;;9.97;47.87
52855;BME280;38719;51.418;7.286;2023-04-26T08:52:14;100108.59;;;10.15;46.71
52855;BME280;38719;51.418;7.286;2023-04-26T08:54:45;100100.19;;;10.26;46.40
52855;BME280;38719;51.418;7.286;2023-04-26T08:57:13;100097.28;;;10.75;46.66
52855;BME280;38719;51.418;7.286;2023-04-26T08:59:41;100098.13;;;10.76;46.53
52855;BME280;38719;51.418;7.286;2023-04-26T09:02:15;100104.22;;;10.99;44.29
52855;BME280;38719;51.418;7.286;2023-04-26T09:04:44;100107.09;;;10.53;45.71
52855;BME280;38719;51.418;7.286;2023-04-26T09:07:19;100109.50;;;10.79;45.71
52855;BME280;38719;51.418;7.286;2023-04-26T09:09:48;100108.19;;;11.29;44.98
52855;BME280;38719;51.418;7.286;2023-04-26T09:12:17;100104.38;;;10.95;44.40
52855;BME280;38719;51.418;7.286;2023-04-26T09:14:45;100104.28;;;11.18;43.40
52855;BME280;38719;51.418;7.286;2023-04-26T09:17:26;100098.25;;;11.33;43.40
52855;BME280;38719;51.418;7.286;2023-04-26T09:19:54;100100.72;;;11.38;42.81
52855;BME280;38719;51.418;7.286;2023-04-26T09:22:31;100106.69;;;11.43;43.03
52855;BME280;38719;51.418;7.286;2023-04-26T09:25:00;100110.75;;;11.12;44.84
52855;BME280;38719;51.418;7.286;2023-04-26T09:27:33;100111.66;;;11.51;43.87
52855;BME280;38719;51.418;7.286;2023-04-26T09:30:05;100103.56;;;11.14;42.39
52855;BME280;38719;51.418;7.286;2023-04-26T09:32:46;100110.91;;;10.88;43.17
52855;BME280;38719;51.418;7.286;2023-04-26T09:35:29;100098.72;;;11.22;45.09
52855;BME280;38719;51.418;7.286;2023-04-26T09:37:59;100097.84;;;11.42;43.28
52855;BME280;38719;51.418;7.286;2023-04-26T09:40:37;100096.59;;;11.69;42.21
52855;BME280;38719;51.418;7.286;2023-04-26T09:43:07;100095.00;;;11.84;41.87
52855;BME280;38719;51.418;7.286;2023-04-26T09:45:43;100092.53;;;11.41;40.61
52855;BME280;38719;51.418;7.286;2023-04-26T09:48:16;100102.81;;;11.31;41.75
52855;BME280;38719;51.418;7.286;2023-04-26T09:50:44;100103.63;;;11.12;42.25
52855;BME280;38719;51.418;7.286;2023-04-26T09:53:26;100106.16;;;10.95;41.03
52855;BME280;38719;51.418;7.286;2023-04-26T09:55:54;100101.09;;;10.47;43.75
52855;BME280;38719;51.418;7.286;2023-04-26T09:58:22;100104.34;;;10.54;44.21
52855;BME280;38719;51.418;7.286;2023-04-26T10:00:50;100106.09;;;10.55;44.80
52855;BME280;38719;51.418;7.286;2023-04-26T10:03:18;100102.50;;;10.56;44.54
52855;BME280;38719;51.418;7.286;2023-04-26T10:05:46;100108.91;;;10.52;45.83
52855;BME280;38719;51.418;7.286;2023-04-26T10:08:14;100100.78;;;10.55;44.64
52855;BME280;38719;51.418;7.286;2023-04-26T10:10:44;100099.84;;;10.56;45.74
52855;BME280;38719;51.418;7.286;2023-04-26T10:13:12;100092.06;;;11.33;44.41
52855;BME280;38719;51.418;7.286;2023-04-26T10:15:42;100100.91;;;10.73;44.86
52855;BME280;38719;51.418;7.286;2023-04-26T10:18:09;100092.34;;;11.45;43.08
52855;BME280;38719;51.418;7.286;2023-04-26T10:20:39;100084.63;;;11.77;42.21
52855;BME280;38719;51.418;7.286;2023-04-26T10:23:13;100096.59;;;11.69;42.86
52855;BME280;38719;51.418;7.286;2023-04-26T10:25:47;100096.22;;;11.96;41.78
52855;BME280;38719;51.418;7.286;2023-04-26T10:28:15;100088.63;;;12.24;41.57
52855;BME280;38719;51.418;7.286;2023-04-26T10:30:56;100092.38;;;12.03;41.39
52855;BME280;38719;51.418;7.286;2023-04-26T10:33:24;100091.50;;;11.83;39.09
52855;BME280;38719;51.418;7.286;2023-04-26T10:36:08;100086.88;;;12.23;39.12
52855;BME280;38719;51.418;7.286;2023-04-26T10:38:38;100086.44;;;12.68;37.63
52855;BME280;38719;51.418;7.286;2023-04-26T10:41:30;100081.38;;;12.97;37.72
52855;BME280;38719;51.418;7.286;2023-04-26T10:43:59;100075.03;;;12.82;37.92
52855;BME280;38719;51.418;7.286;2023-04-26T10:46:49;100073.94;;;13.19;39.36
52855;BME280;38719;51.418;7.286;2023-04-26T10:49:18;100071.41;;;13.16;39.74
52855;BME280;38719;51.418;7.286;2023-04-26T10:52:10;100073.84;;;12.87;40.42
52855;BME280;38719;51.418;7.286;2023-04-26T10:57:47;100061.78;;;13.30;39.06
52855;BME280;38719;51.418;7.286;2023-04-26T11:00:29;100075.81;;;12.84;39.25
52855;BME280;38719;51.418;7.286;2023-04-26T11:03:02;100070.41;;;12.15;40.50
52855;BME280;38719;51.418;7.286;2023-04-26T11:08:29;100071.53;;;12.64;39.75
52855;BME280;38719;51.418;7.286;2023-04-26T11:11:04;100076.03;;;12.79;38.68
52855;BME280;38719;51.418;7.286;2023-04-26T11:13:37;100075.28;;;12.60;40.40
52855;BME280;38719;51.418;7.286;2023-04-26T11:16:05;100071.25;;;12.86;39.00
52855;BME280;38719;51.418;7.286;2023-04-26T11:18:35;100066.63;;;12.89;38.89
52855;BME280;38719;51.418;7.286;2023-04-26T11:21:03;100073.56;;;12.58;39.38
52855;BME280;38719;51.418;7.286;2023-04-26T11:23:31;100065.53;;;12.76;38.37
52855;BME280;38719;51.418;7.286;2023-04-26T11:26:00;100074.59;;;13.07;37.53
52855;BME280;38719;51.418;7.286;2023-04-26T11:28:29;100072.44;;;12.63;37.79
52855;BME280;38719;51.418;7.286;2023-04-26T11:31:01;100071.31;;;13.02;35.80
52855;BME280;38719;51.418;7.286;2023-04-26T11:33:29;100064.28;;;12.31;37.73
52855;BME280;38719;51.418;7.286;2023-04-26T11:35:59;100064.91;;;12.36;38.44
52855;BME280;38719;51.418;7.286;2023-04-26T11:38:27;100066.31;;;12.61;38.40
52855;BME280;38719;51.418;7.286;2023-04-26T11:40:56;100064.28;;;12.48;40.15
52855;BME280;38719;51.418;7.286;2023-04-26T11:43:29;100058.94;;;12.31;40.02
52855;BME280;38719;51.418;7.286;2023-04-26T11:46:02;100051.22;;;12.60;38.91
52855;BME280;38719;51.418;7.286;2023-04-26T11:48:30;100061.59;;;12.13;39.54
52855;BME280;38719;51.418;7.286;2023-04-26T11:51:02;100060.34;;;12.73;40.30
52855;BME280;38719;51.418;7.286;2023-04-26T11:53:36;100051.78;;;13.33;39.35
52855;BME280;38719;51.418;7.286;2023-04-26T11:56:05;100044.72;;;14.12;37.97
52855;BME280;38719;51.418;7.286;2023-04-26T11:58:39;100045.59;;;13.97;36.22
52855;BME280;38719;51.418;7.286;2023-04-26T12:01:08;100042.84;;;14.29;37.59
52855;BME280;38719;51.418;7.286;2023-04-26T12:03:35;100040.28;;;14.27;37.24
52855;BME280;38719;51.418;7.286;2023-04-26T12:06:04;100051.13;;;14.10;35.26
52855;BME280;38719;51.418;7.286;2023-04-26T12:08:32;100042.78;;;13.68;35.54
52855;BME280;38719;51.418;7.286;2023-04-26T12:11:00;100047.34;;;13.82;36.06
52855;BME280;38719;51.418;7.286;2023-04-26T12:13:28;100046.25;;;13.70;35.83
52855;BME280;38719;51.418;7.286;2023-04-26T12:15:56;100040.28;;;13.49;36.59
52855;BME280;38719;51.418;7.286;2023-04-26T12:18:30;100055.97;;;12.37;38.49
52855;BME280;38719;51.418;7.286;2023-04-26T12:20:59;100050.31;;;11.70;39.48
52855;BME280;38719;51.418;7.286;2023-04-26T12:23:27;100056.59;;;11.31;40.76
52855;BME280;38719;51.418;7.286;2023-04-26T12:26:02;100054.53;;;11.37;39.82
52855;BME280;38719;51.418;7.286;2023-04-26T12:28:30;100060.03;;;12.27;39.88
52855;BME280;38719;51.418;7.286;2023-04-26T12:30:57;100063.34;;;12.49;40.13
52855;BME280;38719;51.418;7.286;2023-04-26T12:33:26;100062.06;;;12.74;40.08
52855;BME280;38719;51.418;7.286;2023-04-26T12:35:55;100054.22;;;12.71;39.15
52855;BME280;38719;51.418;7.286;2023-04-26T12:38:25;100055.56;;;12.27;39.17
52855;BME280;38719;51.418;7.286;2023-04-26T12:40:52;100060.03;;;11.90;39.57
52855;BME280;38719;51.418;7.286;2023-04-26T12:43:20;100057.97;;;11.95;40.65
52855;BME280;38719;51.418;7.286;2023-04-26T12:45:49;100058.69;;;11.43;40.14
52855;BME280;38719;51.418;7.286;2023-04-26T12:48:16;100056.31;;;11.18;41.20
52855;BME280;38719;51.418;7.286;2023-04-26T12:50:44;100063.44;;;11.55;40.35
52855;BME280;38719;51.418;7.286;2023-04-26T12:53:13;100056.19;;;11.40;41.50
52855;BME280;38719;51.418;7.286;2023-04-26T12:55:41;100051.47;;;11.26;40.32
52855;BME280;38719;51.418;7.286;2023-04-26T12:58:08;100051.03;;;11.73;42.14
52855;BME280;38719;51.418;7.286;2023-04-26T13:00:36;100055.69;;;11.87;42.00
52855;BME280;38719;51.418;7.286;2023-04-26T13:03:03;100054.28;;;11.99;40.50
52855;BME280;38719;51.418;7.286;2023-04-26T13:05:31;100048.72;;;11.66;40.71
52855;BME280;38719;51.418;7.286;2023-04-26T13:07:59;100057.00;;;11.78;41.96
52855;BME280;38719;51.418;7.286;2023-04-26T13:10:28;100054.72;;;11.52;40.58
52855;BME280;38719;51.418;7.286;2023-04-26T13:12:58;100052.44;;;11.44;40.82